sensor_id;sensor_type;location;lat;lon;timestamp;P1;durP1;ratioP1;P2;durP2;ratioP2
25045;SDS011;13044;49.304;12.840;2024-01-15T00:00:20;51.67;;;24.17;;
25045;SDS011;13044;49.304;12.840;2024-01-15T00:02:47;55.75;;;25.65;;
25045;SDS011;13044;49.304;12.840;2024-01-15T00:05:14;56.03;;;24.80;;
25045;SDS011;13044;49.304;12.840;2024-01-15T00:07:41;50.50;;;24.70;;
25045;SDS011;13044;49.304;12.840;2024-01-15T00:10:08;56.08;;;26.13;;
25045;SDS011;13044;49.304;12.840;2024-01-15T00:12:35;56.33;;;26.02;;
25045;SDS011;13044;49.304;12.840;2024-01-15T00:15:03;54.15;;;24.80;;
25045;SDS011;13044;49.304;12.840;2024-01-15T00:17:31;56.00;;;27.05;;
25045;SDS011;13044;49.304;12.840;2024-01-15T00:19:58;60.60;;;27.50;;
25045;SDS011;13044;49.304;12.840;2024-01-15T00:22:25;64.70;;;28.17;;
25045;SDS011;13044;49.304;12.840;2024-01-15T00:24:55;70.78;;;29.30;;
25045;SDS011;13044;49.304;12.840;2024-01-15T00:27:22;65.57;;;29.48;;
25045;SDS011;13044;49.304;12.840;2024-01-15T00:29:50;66.03;;;28.75;;
25045;SDS011;13044;49.304;12.840;2024-01-15T00:32:18;55.78;;;25.98;;
25045;SDS011;13044;49.304;12.840;2024-01-15T00:34:46;57.50;;;26.58;;
25045;SDS011;13044;49.304;12.840;2024-01-15T00:37:13;53.15;;;24.65;;
25045;SDS011;13044;49.304;12.840;2024-01-15T00:39:40;59.72;;;25.05;;
25045;SDS011;13044;49.304;12.840;2024-01-15T00:42:07;55.30;;;24.42;;
25045;SDS011;13044;49.304;12.840;2024-01-15T00:44:34;55.60;;;25.33;;
25045;SDS011;13044;49.304;12.840;2024-01-15T00:47:01;57.40;;;25.63;;
25045;SDS011;13044;49.304;12.840;2024-01-15T00:49:28;57.80;;;26.48;;
25045;SDS011;13044;49.304;12.840;2024-01-15T00:51:55;60.25;;;25.98;;
25045;SDS011;13044;49.304;12.840;2024-01-15T00:54:22;60.00;;;26.35;;
25045;SDS011;13044;49.304;12.840;2024-01-15T00:56:49;57.15;;;25.98;;
25045;SDS011;13044;49.304;12.840;2024-01-15T00:59:15;61.53;;;28.75;;
25045;SDS011;13044;49.304;12.840;2024-01-15T01:01:42;66.25;;;28.58;;
25045;SDS011;13044;49.304;12.840;2024-01-15T01:04:10;62.40;;;28.58;;
25045;SDS011;13044;49.304;12.840;2024-01-15T01:06:37;65.45;;;28.95;;
25045;SDS011;13044;49.304;12.840;2024-01-15T01:09:05;63.17;;;28.77;;
25045;SDS011;13044;49.304;12.840;2024-01-15T01:11:32;60.47;;;28.38;;
25045;SDS011;13044;49.304;12.840;2024-01-15T01:13:58;65.20;;;28.52;;
25045;SDS011;13044;49.304;12.840;2024-01-15T01:16:27;66.55;;;29.70;;
25045;SDS011;13044;49.304;12.840;2024-01-15T01:18:53;66.40;;;29.48;;
25045;SDS011;13044;49.304;12.840;2024-01-15T01:21:21;61.53;;;29.33;;
25045;SDS011;13044;49.304;12.840;2024-01-15T01:23:48;65.63;;;29.92;;
25045;SDS011;13044;49.304;12.840;2024-01-15T01:26:15;74.60;;;30.45;;
25045;SDS011;13044;49.304;12.840;2024-01-15T01:28:43;59.90;;;27.38;;
25045;SDS011;13044;49.304;12.840;2024-01-15T01:31:10;63.42;;;28.60;;
25045;SDS011;13044;49.304;12.840;2024-01-15T01:33:38;62.30;;;28.90;;
25045;SDS011;13044;49.304;12.840;2024-01-15T01:36:07;66.03;;;29.50;;
25045;SDS011;13044;49.304;12.840;2024-01-15T01:38:39;61.65;;;28.45;;
25045;SDS011;13044;49.304;12.840;2024-01-15T01:41:07;64.13;;;28.48;;
25045;SDS011;13044;49.304;12.840;2024-01-15T01:43:35;60.83;;;27.30;;
25045;SDS011;13044;49.304;12.840;2024-01-15T01:46:02;59.90;;;27.63;;
25045;SDS011;13044;49.304;12.840;2024-01-15T01:48:29;59.53;;;26.83;;
25045;SDS011;13044;49.304;12.840;2024-01-15T01:50:58;55.90;;;25.85;;
25045;SDS011;13044;49.304;12.840;2024-01-15T01:53:29;59.40;;;26.57;;
25045;SDS011;13044;49.304;12.840;2024-01-15T01:55:59;56.72;;;25.90;;
25045;SDS011;13044;49.304;12.840;2024-01-15T01:58:27;59.63;;;27.05;;
25045;SDS011;13044;49.304;12.840;2024-01-15T02:00:55;59.72;;;27.02;;
25045;SDS011;13044;49.304;12.840;2024-01-15T02:03:23;54.03;;;25.77;;
25045;SDS011;13044;49.304;12.840;2024-01-15T02:05:50;57.90;;;26.73;;
25045;SDS011;13044;49.304;12.840;2024-01-15T02:08:17;54.38;;;26.02;;
25045;SDS011;13044;49.304;12.840;2024-01-15T02:10:44;60.58;;;26.42;;
25045;SDS011;13044;49.304;12.840;2024-01-15T02:13:11;60.05;;;27.08;;
25045;SDS011;13044;49.304;12.840;2024-01-15T02:15:38;62.58;;;26.83;;
25045;SDS011;13044;49.304;12.840;2024-01-15T02:18:05;64.15;;;28.30;;
25045;SDS011;13044;49.304;12.840;2024-01-15T02:20:36;64.82;;;26.60;;
25045;SDS011;13044;49.304;12.840;2024-01-15T02:23:06;62.80;;;27.23;;
25045;SDS011;13044;49.304;12.840;2024-01-15T02:25:43;59.17;;;25.35;;
25045;SDS011;13044;49.304;12.840;2024-01-15T02:28:13;55.63;;;24.92;;
25045;SDS011;13044;49.304;12.840;2024-01-15T02:30:42;55.85;;;25.33;;
25045;SDS011;13044;49.304;12.840;2024-01-15T02:33:11;63.92;;;27.25;;
25045;SDS011;13044;49.304;12.840;2024-01-15T02:35:39;60.60;;;24.67;;
25045;SDS011;13044;49.304;12.840;2024-01-15T02:38:06;62.25;;;26.17;;
25045;SDS011;13044;49.304;12.840;2024-01-15T02:40:34;56.75;;;25.15;;
25045;SDS011;13044;49.304;12.840;2024-01-15T02:43:01;60.05;;;25.45;;
25045;SDS011;13044;49.304;12.840;2024-01-15T02:45:28;58.95;;;24.55;;
25045;SDS011;13044;49.304;12.840;2024-01-15T02:47:56;57.03;;;24.42;;
25045;SDS011;13044;49.304;12.840;2024-01-15T02:50:23;61.55;;;26.33;;
25045;SDS011;13044;49.304;12.840;2024-01-15T02:52:50;65.13;;;26.33;;
25045;SDS011;13044;49.304;12.840;2024-01-15T02:55:17;60.20;;;25.65;;
25045;SDS011;13044;49.304;12.840;2024-01-15T02:57:44;63.92;;;27.45;;
25045;SDS011;13044;49.304;12.840;2024-01-15T03:00:11;68.40;;;27.58;;
25045;SDS011;13044;49.304;12.840;2024-01-15T03:02:39;61.20;;;25.27;;
25045;SDS011;13044;49.304;12.840;2024-01-15T03:05:11;61.67;;;25.75;;
25045;SDS011;13044;49.304;12.840;2024-01-15T03:07:38;61.20;;;26.88;;
25045;SDS011;13044;49.304;12.840;2024-01-15T03:10:05;61.47;;;24.60;;
25045;SDS011;13044;49.304;12.840;2024-01-15T03:12:33;66.78;;;27.70;;
25045;SDS011;13044;49.304;12.840;2024-01-15T03:15:00;70.68;;;28.10;;
25045;SDS011;13044;49.304;12.840;2024-01-15T03:17:27;74.65;;;28.15;;
25045;SDS011;13044;49.304;12.840;2024-01-15T03:19:54;66.65;;;25.90;;
25045;SDS011;13044;49.304;12.840;2024-01-15T03:22:21;63.42;;;24.85;;
25045;SDS011;13044;49.304;12.840;2024-01-15T03:24:48;67.03;;;25.70;;
25045;SDS011;13044;49.304;12.840;2024-01-15T03:27:15;66.47;;;24.95;;
25045;SDS011;13044;49.304;12.840;2024-01-15T03:29:42;60.70;;;25.20;;
25045;SDS011;13044;49.304;12.840;2024-01-15T03:32:09;62.88;;;25.75;;
25045;SDS011;13044;49.304;12.840;2024-01-15T03:34:36;60.00;;;25.88;;
25045;SDS011;13044;49.304;12.840;2024-01-15T03:37:03;69.15;;;26.52;;
25045;SDS011;13044;49.304;12.840;2024-01-15T03:39:30;65.03;;;25.27;;
25045;SDS011;13044;49.304;12.840;2024-01-15T03:41:57;68.25;;;26.33;;
25045;SDS011;13044;49.304;12.840;2024-01-15T03:44:24;66.70;;;26.13;;
25045;SDS011;13044;49.304;12.840;2024-01-15T03:46:51;62.13;;;25.13;;
25045;SDS011;13044;49.304;12.840;2024-01-15T03:49:18;67.68;;;25.92;;
25045;SDS011;13044;49.304;12.840;2024-01-15T03:51:45;64.80;;;25.10;;
25045;SDS011;13044;49.304;12.840;2024-01-15T03:54:12;69.38;;;27.02;;
25045;SDS011;13044;49.304;12.840;2024-01-15T03:56:39;62.80;;;24.92;;
25045;SDS011;13044;49.304;12.840;2024-01-15T03:59:05;61.78;;;25.80;;
25045;SDS011;13044;49.304;12.840;2024-01-15T04:01:32;65.40;;;24.70;;
25045;SDS011;13044;49.304;12.840;2024-01-15T04:03:59;56.80;;;22.95;;
25045;SDS011;13044;49.304;12.840;2024-01-15T04:06:26;58.95;;;24.65;;
25045;SDS011;13044;49.304;12.840;2024-01-15T04:08:53;57.45;;;23.25;;
25045;SDS011;13044;49.304;12.840;2024-01-15T04:11:20;63.33;;;26.08;;
25045;SDS011;13044;49.304;12.840;2024-01-15T04:13:48;69.15;;;30.08;;
25045;SDS011;13044;49.304;12.840;2024-01-15T04:16:16;60.05;;;24.02;;
25045;SDS011;13044;49.304;12.840;2024-01-15T04:18:43;56.22;;;23.58;;
25045;SDS011;13044;49.304;12.840;2024-01-15T04:21:10;61.17;;;23.73;;
25045;SDS011;13044;49.304;12.840;2024-01-15T04:23:37;59.42;;;22.98;;
25045;SDS011;13044;49.304;12.840;2024-01-15T04:26:05;53.13;;;21.20;;
25045;SDS011;13044;49.304;12.840;2024-01-15T04:28:32;60.03;;;23.90;;
25045;SDS011;13044;49.304;12.840;2024-01-15T04:30:59;61.45;;;22.83;;
25045;SDS011;13044;49.304;12.840;2024-01-15T04:33:26;57.33;;;23.35;;
25045;SDS011;13044;49.304;12.840;2024-01-15T04:35:53;54.20;;;22.20;;
25045;SDS011;13044;49.304;12.840;2024-01-15T04:38:20;54.60;;;22.10;;
25045;SDS011;13044;49.304;12.840;2024-01-15T04:40:47;60.85;;;22.42;;
25045;SDS011;13044;49.304;12.840;2024-01-15T04:43:13;55.85;;;22.30;;
25045;SDS011;13044;49.304;12.840;2024-01-15T04:45:40;56.08;;;23.33;;
25045;SDS011;13044;49.304;12.840;2024-01-15T04:48:08;56.50;;;21.73;;
25045;SDS011;13044;49.304;12.840;2024-01-15T04:50:35;56.22;;;22.75;;
25045;SDS011;13044;49.304;12.840;2024-01-15T04:53:01;56.67;;;24.10;;
25045;SDS011;13044;49.304;12.840;2024-01-15T04:55:28;58.97;;;22.67;;
25045;SDS011;13044;49.304;12.840;2024-01-15T04:57:55;53.88;;;22.00;;
25045;SDS011;13044;49.304;12.840;2024-01-15T05:00:22;55.97;;;23.00;;
25045;SDS011;13044;49.304;12.840;2024-01-15T05:02:49;53.15;;;21.77;;
25045;SDS011;13044;49.304;12.840;2024-01-15T05:05:16;58.97;;;21.85;;
25045;SDS011;13044;49.304;12.840;2024-01-15T05:07:43;50.97;;;21.00;;
25045;SDS011;13044;49.304;12.840;2024-01-15T05:10:10;55.38;;;21.85;;
25045;SDS011;13044;49.304;12.840;2024-01-15T05:12:37;58.75;;;22.95;;
25045;SDS011;13044;49.304;12.840;2024-01-15T05:15:04;50.15;;;20.85;;
25045;SDS011;13044;49.304;12.840;2024-01-15T05:17:31;61.15;;;21.80;;
25045;SDS011;13044;49.304;12.840;2024-01-15T05:19:58;53.03;;;20.85;;
25045;SDS011;13044;49.304;12.840;2024-01-15T05:22:25;54.75;;;21.67;;
25045;SDS011;13044;49.304;12.840;2024-01-15T05:24:52;53.45;;;21.48;;
25045;SDS011;13044;49.304;12.840;2024-01-15T05:27:19;49.08;;;20.17;;
25045;SDS011;13044;49.304;12.840;2024-01-15T05:29:46;50.00;;;21.10;;
25045;SDS011;13044;49.304;12.840;2024-01-15T05:32:13;50.70;;;19.90;;
25045;SDS011;13044;49.304;12.840;2024-01-15T05:34:40;47.60;;;19.77;;
25045;SDS011;13044;49.304;12.840;2024-01-15T05:37:07;60.97;;;21.10;;
25045;SDS011;13044;49.304;12.840;2024-01-15T05:39:34;49.95;;;19.17;;
25045;SDS011;13044;49.304;12.840;2024-01-15T05:42:00;49.00;;;19.45;;
25045;SDS011;13044;49.304;12.840;2024-01-15T05:44:27;46.83;;;18.75;;
25045;SDS011;13044;49.304;12.840;2024-01-15T05:46:54;48.72;;;19.85;;
25045;SDS011;13044;49.304;12.840;2024-01-15T05:49:21;47.40;;;18.60;;
25045;SDS011;13044;49.304;12.840;2024-01-15T05:51:48;46.55;;;19.15;;
25045;SDS011;13044;49.304;12.840;2024-01-15T05:54:15;46.70;;;18.23;;
25045;SDS011;13044;49.304;12.840;2024-01-15T05:56:44;45.47;;;18.83;;
25045;SDS011;13044;49.304;12.840;2024-01-15T05:59:11;42.95;;;18.55;;
25045;SDS011;13044;49.304;12.840;2024-01-15T06:01:41;44.80;;;18.80;;
25045;SDS011;13044;49.304;12.840;2024-01-15T06:04:08;56.65;;;19.33;;
25045;SDS011;13044;49.304;12.840;2024-01-15T06:06:35;44.92;;;17.90;;
25045;SDS011;13044;49.304;12.840;2024-01-15T06:09:02;45.50;;;17.73;;
25045;SDS011;13044;49.304;12.840;2024-01-15T06:11:31;44.47;;;17.40;;
25045;SDS011;13044;49.304;12.840;2024-01-15T06:13:59;42.13;;;18.30;;
25045;SDS011;13044;49.304;12.840;2024-01-15T06:16:29;41.75;;;17.42;;
25045;SDS011;13044;49.304;12.840;2024-01-15T06:18:56;48.97;;;17.88;;
25045;SDS011;13044;49.304;12.840;2024-01-15T06:21:23;47.58;;;17.10;;
25045;SDS011;13044;49.304;12.840;2024-01-15T06:23:50;45.25;;;17.40;;
25045;SDS011;13044;49.304;12.840;2024-01-15T06:26:17;43.08;;;17.17;;
25045;SDS011;13044;49.304;12.840;2024-01-15T06:28:43;42.70;;;18.05;;
25045;SDS011;13044;49.304;12.840;2024-01-15T06:31:10;36.33;;;16.35;;
25045;SDS011;13044;49.304;12.840;2024-01-15T06:33:38;42.33;;;17.98;;
25045;SDS011;13044;49.304;12.840;2024-01-15T06:36:06;41.63;;;17.17;;
25045;SDS011;13044;49.304;12.840;2024-01-15T06:38:33;40.65;;;16.45;;
25045;SDS011;13044;49.304;12.840;2024-01-15T06:41:00;42.80;;;18.33;;
25045;SDS011;13044;49.304;12.840;2024-01-15T06:43:27;46.58;;;18.02;;
25045;SDS011;13044;49.304;12.840;2024-01-15T06:45:54;40.33;;;16.48;;
25045;SDS011;13044;49.304;12.840;2024-01-15T06:48:21;36.47;;;16.08;;
25045;SDS011;13044;49.304;12.840;2024-01-15T06:50:48;39.90;;;16.55;;
25045;SDS011;13044;49.304;12.840;2024-01-15T06:53:15;37.63;;;15.77;;
25045;SDS011;13044;49.304;12.840;2024-01-15T06:55:42;36.35;;;15.45;;
25045;SDS011;13044;49.304;12.840;2024-01-15T06:58:09;38.97;;;15.20;;
25045;SDS011;13044;49.304;12.840;2024-01-15T07:00:36;35.17;;;15.18;;
25045;SDS011;13044;49.304;12.840;2024-01-15T07:03:04;39.53;;;15.27;;
25045;SDS011;13044;49.304;12.840;2024-01-15T07:05:31;38.90;;;15.70;;
25045;SDS011;13044;49.304;12.840;2024-01-15T07:07:58;34.05;;;14.65;;
25045;SDS011;13044;49.304;12.840;2024-01-15T07:10:25;37.75;;;15.70;;
25045;SDS011;13044;49.304;12.840;2024-01-15T07:12:52;36.90;;;15.27;;
25045;SDS011;13044;49.304;12.840;2024-01-15T07:15:20;33.10;;;15.20;;
25045;SDS011;13044;49.304;12.840;2024-01-15T07:17:47;34.78;;;14.75;;
25045;SDS011;13044;49.304;12.840;2024-01-15T07:20:14;33.75;;;14.68;;
25045;SDS011;13044;49.304;12.840;2024-01-15T07:22:41;34.03;;;14.80;;
25045;SDS011;13044;49.304;12.840;2024-01-15T07:25:08;35.80;;;13.63;;
25045;SDS011;13044;49.304;12.840;2024-01-15T07:27:35;32.20;;;14.40;;
25045;SDS011;13044;49.304;12.840;2024-01-15T07:30:02;31.60;;;14.48;;
25045;SDS011;13044;49.304;12.840;2024-01-15T07:32:31;29.45;;;14.23;;
25045;SDS011;13044;49.304;12.840;2024-01-15T07:34:59;29.38;;;12.52;;
25045;SDS011;13044;49.304;12.840;2024-01-15T07:37:26;29.50;;;13.75;;
25045;SDS011;13044;49.304;12.840;2024-01-15T07:39:53;34.13;;;13.75;;
25045;SDS011;13044;49.304;12.840;2024-01-15T07:42:20;31.92;;;14.55;;
25045;SDS011;13044;49.304;12.840;2024-01-15T07:44:47;32.72;;;14.52;;
25045;SDS011;13044;49.304;12.840;2024-01-15T07:47:14;33.03;;;14.60;;
25045;SDS011;13044;49.304;12.840;2024-01-15T07:49:40;32.30;;;14.32;;
25045;SDS011;13044;49.304;12.840;2024-01-15T07:52:08;29.70;;;13.73;;
25045;SDS011;13044;49.304;12.840;2024-01-15T07:54:34;34.67;;;15.85;;
25045;SDS011;13044;49.304;12.840;2024-01-15T07:57:02;33.08;;;14.70;;
25045;SDS011;13044;49.304;12.840;2024-01-15T07:59:29;31.48;;;14.23;;
25045;SDS011;13044;49.304;12.840;2024-01-15T08:01:58;30.75;;;13.50;;
25045;SDS011;13044;49.304;12.840;2024-01-15T08:04:26;27.20;;;13.30;;
25045;SDS011;13044;49.304;12.840;2024-01-15T08:06:53;30.92;;;14.10;;
25045;SDS011;13044;49.304;12.840;2024-01-15T08:09:20;24.27;;;11.88;;
25045;SDS011;13044;49.304;12.840;2024-01-15T08:11:47;30.13;;;13.20;;
25045;SDS011;13044;49.304;12.840;2024-01-15T08:14:15;29.33;;;12.93;;
25045;SDS011;13044;49.304;12.840;2024-01-15T08:16:44;33.42;;;13.57;;
25045;SDS011;13044;49.304;12.840;2024-01-15T08:19:11;28.95;;;13.90;;
25045;SDS011;13044;49.304;12.840;2024-01-15T08:21:38;28.23;;;12.82;;
25045;SDS011;13044;49.304;12.840;2024-01-15T08:24:05;30.85;;;13.13;;
25045;SDS011;13044;49.304;12.840;2024-01-15T08:26:32;25.95;;;13.30;;
25045;SDS011;13044;49.304;12.840;2024-01-15T08:28:59;25.75;;;12.35;;
25045;SDS011;13044;49.304;12.840;2024-01-15T08:31:26;26.48;;;13.23;;
25045;SDS011;13044;49.304;12.840;2024-01-15T08:33:54;27.58;;;13.93;;
25045;SDS011;13044;49.304;12.840;2024-01-15T08:36:22;32.88;;;14.50;;
25045;SDS011;13044;49.304;12.840;2024-01-15T08:38:50;28.80;;;13.55;;
25045;SDS011;13044;49.304;12.840;2024-01-15T08:41:18;29.00;;;13.50;;
25045;SDS011;13044;49.304;12.840;2024-01-15T08:43:45;29.52;;;13.13;;
25045;SDS011;13044;49.304;12.840;2024-01-15T08:46:12;28.75;;;13.10;;
25045;SDS011;13044;49.304;12.840;2024-01-15T08:48:39;27.08;;;13.20;;
25045;SDS011;13044;49.304;12.840;2024-01-15T08:51:06;31.27;;;12.80;;
25045;SDS011;13044;49.304;12.840;2024-01-15T08:53:34;24.08;;;12.00;;
25045;SDS011;13044;49.304;12.840;2024-01-15T08:56:01;27.30;;;12.30;;
25045;SDS011;13044;49.304;12.840;2024-01-15T08:58:28;28.83;;;12.73;;
25045;SDS011;13044;49.304;12.840;2024-01-15T09:00:55;25.67;;;12.48;;
25045;SDS011;13044;49.304;12.840;2024-01-15T09:03:22;26.65;;;12.55;;
25045;SDS011;13044;49.304;12.840;2024-01-15T09:05:49;25.25;;;12.75;;
25045;SDS011;13044;49.304;12.840;2024-01-15T09:08:17;26.45;;;11.88;;
25045;SDS011;13044;49.304;12.840;2024-01-15T09:10:44;24.15;;;11.80;;
25045;SDS011;13044;49.304;12.840;2024-01-15T09:13:12;27.02;;;11.98;;
25045;SDS011;13044;49.304;12.840;2024-01-15T09:15:39;23.48;;;10.93;;
25045;SDS011;13044;49.304;12.840;2024-01-15T09:18:06;29.90;;;12.70;;
25045;SDS011;13044;49.304;12.840;2024-01-15T09:20:34;30.80;;;12.98;;
25045;SDS011;13044;49.304;12.840;2024-01-15T09:23:01;20.33;;;11.10;;
25045;SDS011;13044;49.304;12.840;2024-01-15T09:25:29;21.35;;;10.18;;
25045;SDS011;13044;49.304;12.840;2024-01-15T09:27:55;24.38;;;11.13;;
25045;SDS011;13044;49.304;12.840;2024-01-15T09:30:23;25.80;;;10.90;;
25045;SDS011;13044;49.304;12.840;2024-01-15T09:32:50;22.00;;;11.10;;
25045;SDS011;13044;49.304;12.840;2024-01-15T09:35:17;23.40;;;11.32;;
25045;SDS011;13044;49.304;12.840;2024-01-15T09:37:49;18.83;;;9.13;;
25045;SDS011;13044;49.304;12.840;2024-01-15T09:40:16;24.02;;;11.32;;
25045;SDS011;13044;49.304;12.840;2024-01-15T09:42:46;22.40;;;11.25;;
25045;SDS011;13044;49.304;12.840;2024-01-15T09:45:14;26.92;;;13.27;;
25045;SDS011;13044;49.304;12.840;2024-01-15T09:47:41;23.65;;;11.32;;
25045;SDS011;13044;49.304;12.840;2024-01-15T09:50:11;23.20;;;10.98;;
25045;SDS011;13044;49.304;12.840;2024-01-15T09:52:42;23.63;;;11.10;;
25045;SDS011;13044;49.304;12.840;2024-01-15T09:55:11;19.45;;;10.18;;
25045;SDS011;13044;49.304;12.840;2024-01-15T09:57:38;23.25;;;10.57;;
25045;SDS011;13044;49.304;12.840;2024-01-15T10:00:06;20.00;;;10.35;;
25045;SDS011;13044;49.304;12.840;2024-01-15T10:02:37;21.92;;;11.30;;
25045;SDS011;13044;49.304;12.840;2024-01-15T10:05:04;21.42;;;10.18;;
25045;SDS011;13044;49.304;12.840;2024-01-15T10:07:32;19.38;;;10.32;;
25045;SDS011;13044;49.304;12.840;2024-01-15T10:10:03;19.85;;;10.48;;
25045;SDS011;13044;49.304;12.840;2024-01-15T10:12:30;19.02;;;9.95;;
25045;SDS011;13044;49.304;12.840;2024-01-15T10:14:57;20.40;;;9.88;;
25045;SDS011;13044;49.304;12.840;2024-01-15T10:17:24;18.75;;;9.38;;
25045;SDS011;13044;49.304;12.840;2024-01-15T10:19:54;22.05;;;10.73;;
25045;SDS011;13044;49.304;12.840;2024-01-15T10:22:22;17.33;;;9.73;;
25045;SDS011;13044;49.304;12.840;2024-01-15T10:24:49;19.15;;;9.13;;
25045;SDS011;13044;49.304;12.840;2024-01-15T10:27:17;17.05;;;8.60;;
25045;SDS011;13044;49.304;12.840;2024-01-15T10:29:44;19.25;;;9.52;;
25045;SDS011;13044;49.304;12.840;2024-01-15T10:32:11;20.00;;;9.80;;
25045;SDS011;13044;49.304;12.840;2024-01-15T10:34:39;17.45;;;9.65;;
25045;SDS011;13044;49.304;12.840;2024-01-15T10:37:08;21.02;;;9.68;;
25045;SDS011;13044;49.304;12.840;2024-01-15T10:39:36;27.13;;;12.18;;
25045;SDS011;13044;49.304;12.840;2024-01-15T10:42:04;22.23;;;9.77;;
25045;SDS011;13044;49.304;12.840;2024-01-15T10:44:33;17.48;;;9.05;;
25045;SDS011;13044;49.304;12.840;2024-01-15T10:47:01;21.20;;;9.73;;
25045;SDS011;13044;49.304;12.840;2024-01-15T10:49:29;18.83;;;9.95;;
25045;SDS011;13044;49.304;12.840;2024-01-15T10:52:00;16.52;;;9.15;;
25045;SDS011;13044;49.304;12.840;2024-01-15T10:54:29;19.45;;;9.75;;
25045;SDS011;13044;49.304;12.840;2024-01-15T10:56:56;21.92;;;10.60;;
25045;SDS011;13044;49.304;12.840;2024-01-15T10:59:23;15.65;;;8.90;;
25045;SDS011;13044;49.304;12.840;2024-01-15T11:01:51;17.23;;;9.95;;
25045;SDS011;13044;49.304;12.840;2024-01-15T11:04:22;19.90;;;12.13;;
25045;SDS011;13044;49.304;12.840;2024-01-15T11:06:53;16.63;;;9.30;;
25045;SDS011;13044;49.304;12.840;2024-01-15T11:09:23;17.27;;;8.63;;
25045;SDS011;13044;49.304;12.840;2024-01-15T11:11:52;19.30;;;10.32;;
25045;SDS011;13044;49.304;12.840;2024-01-15T11:14:40;14.73;;;7.17;;
25045;SDS011;13044;49.304;12.840;2024-01-15T11:17:12;15.90;;;8.27;;
25045;SDS011;13044;49.304;12.840;2024-01-15T11:19:44;14.20;;;7.68;;
25045;SDS011;13044;49.304;12.840;2024-01-15T11:25:03;17.80;;;8.50;;
25045;SDS011;13044;49.304;12.840;2024-01-15T11:27:43;16.80;;;8.68;;
25045;SDS011;13044;49.304;12.840;2024-01-15T11:30:19;17.30;;;9.02;;
25045;SDS011;13044;49.304;12.840;2024-01-15T11:32:46;18.90;;;9.90;;
25045;SDS011;13044;49.304;12.840;2024-01-15T11:35:14;15.88;;;8.35;;
25045;SDS011;13044;49.304;12.840;2024-01-15T11:40:18;19.40;;;10.02;;
25045;SDS011;13044;49.304;12.840;2024-01-15T11:42:47;17.83;;;9.07;;
25045;SDS011;13044;49.304;12.840;2024-01-15T11:45:19;17.35;;;8.85;;
25045;SDS011;13044;49.304;12.840;2024-01-15T11:53:21;9.93;;;6.05;;
25045;SDS011;13044;49.304;12.840;2024-01-15T11:56:03;13.88;;;7.80;;
25045;SDS011;13044;49.304;12.840;2024-01-15T11:58:40;15.80;;;8.27;;
25045;SDS011;13044;49.304;12.840;2024-01-15T12:01:08;14.65;;;7.75;;
25045;SDS011;13044;49.304;12.840;2024-01-15T12:03:37;14.20;;;8.23;;
25045;SDS011;13044;49.304;12.840;2024-01-15T12:06:07;14.13;;;7.65;;
25045;SDS011;13044;49.304;12.840;2024-01-15T12:08:36;13.35;;;8.00;;
25045;SDS011;13044;49.304;12.840;2024-01-15T12:11:06;15.15;;;8.52;;
25045;SDS011;13044;49.304;12.840;2024-01-15T12:13:37;16.42;;;8.88;;
25045;SDS011;13044;49.304;12.840;2024-01-15T12:16:05;16.08;;;8.65;;
25045;SDS011;13044;49.304;12.840;2024-01-15T12:18:32;16.63;;;8.85;;
25045;SDS011;13044;49.304;12.840;2024-01-15T12:20:59;16.88;;;8.35;;
25045;SDS011;13044;49.304;12.840;2024-01-15T12:23:26;16.00;;;8.07;;
25045;SDS011;13044;49.304;12.840;2024-01-15T12:25:53;17.38;;;8.65;;
25045;SDS011;13044;49.304;12.840;2024-01-15T12:28:22;17.73;;;8.05;;
25045;SDS011;13044;49.304;12.840;2024-01-15T12:30:49;18.02;;;8.25;;
25045;SDS011;13044;49.304;12.840;2024-01-15T12:33:17;15.43;;;8.35;;
25045;SDS011;13044;49.304;12.840;2024-01-15T12:35:46;21.25;;;8.10;;
25045;SDS011;13044;49.304;12.840;2024-01-15T12:38:13;17.58;;;8.10;;
25045;SDS011;13044;49.304;12.840;2024-01-15T12:40:40;15.43;;;7.63;;
25045;SDS011;13044;49.304;12.840;2024-01-15T12:43:12;16.98;;;8.43;;
25045;SDS011;13044;49.304;12.840;2024-01-15T12:45:40;16.42;;;8.65;;
25045;SDS011;13044;49.304;12.840;2024-01-15T12:48:07;13.50;;;7.63;;
25045;SDS011;13044;49.304;12.840;2024-01-15T12:50:34;18.00;;;8.35;;
